Wahoo, NE

1:47 AM CST on November 19, 2017 (GMT -0600)
Wahoo Municipal

Weather History for KAHQ - October, 2013

Change the Weather History Date:

Tuesday, October 15, 2013

  Actual Average Record
Temperature  
Mean Temperature 49 °F -  
Max Temperature 53 °F 67 °F 84 °F (1963)
Min Temperature 44 °F 40 °F 26 °F (1974)
Degree Days  
Heating Degree Days 16    
Moisture  
Dew Point 40 °F    
Average Humidity 73    
Maximum Humidity 85    
Minimum Humidity 66    
Precipitation  
Precipitation 0.31 in - - ()
Sea Level Pressure  
Sea Level Pressure 29.96 in    
Wind  
Wind Speed 19 mph (WNW)    
Max Wind Speed 28 mph    
Max Gust Speed 34 mph    
Visibility 10 miles    
Events      
Averages and records for this station are not official NWS values.
T = Trace of Precipitation, MM = Missing Value Source: NWS Daily Summary

Daily Weather History Graph

Daily Weather History Graph

Search for Another Location

Airport or City:

Trip Planner

Search our weather history database for the weather conditions in past years. The results will help you decide how hot, cold, wet, or windy it might be!

Date:

Astronomy

Oct. 15, 2013 Rise Set
Actual Time 7:38 AM CDT 6:45 PM CDT
Civil Twilight 7:10 AM CDT 7:12 PM CDT
Nautical Twilight 6:38 AM CDT 7:44 PM CDT
Astronomical Twilight 6:06 AM CDT 8:16 PM CDT
Moon 4:52 PM CDT (10/15) 4:00 AM CDT (10/15)
Length of Visible Light 12h 02m
Length of Day
11h 06m
Waxing Gibbous, 88% of the Moon is Illuminated
Oct 15
Waxing Gibbous
Oct 18
Full
Oct 26
Last Quarter
Nov 3
New
Nov 9
First Quarter

Hourly Weather History & Observations

Time (CDT) Temp. Windchill Dew Point Humidity Pressure Visibility Wind Dir Wind Speed Gust Speed Precip Events Conditions
12:15 AM 54.0 °F - 48.0 °F 80% 29.80 in 10.0 mi West 18.4 mph 26.5 mph N/A   Overcast
12:35 AM 53.8 °F - 47.7 °F 80% 29.80 in 10.0 mi West 15.0 mph 20.7 mph N/A   Overcast
12:55 AM 53.6 °F - 46.9 °F 78% 29.81 in 10.0 mi West 12.7 mph 17.3 mph N/A   Overcast
1:15 AM 53.4 °F - 46.9 °F 79% 29.81 in 10.0 mi West 17.3 mph 24.2 mph N/A   Overcast
1:35 AM 52.9 °F - 46.4 °F 79% 29.82 in 10.0 mi West 11.5 mph - N/A   Overcast
1:55 AM 52.7 °F - 44.6 °F 74% 29.83 in 10.0 mi West 21.9 mph 28.8 mph N/A   Overcast
2:15 AM 51.8 °F - 43.9 °F 74% 29.83 in 10.0 mi West 23.0 mph 29.9 mph N/A   Overcast
2:35 AM 50.4 °F - 42.3 °F 74% 29.84 in 10.0 mi West 20.7 mph 31.1 mph N/A   Overcast
2:55 AM 50.2 °F - 42.4 °F 75% 29.85 in 10.0 mi West 21.9 mph 32.2 mph N/A   Overcast
3:15 AM 49.5 °F - 41.5 °F 74% 29.85 in 10.0 mi West 23.0 mph 31.1 mph N/A   Overcast
3:35 AM 49.3 °F - 41.5 °F 75% 29.85 in 10.0 mi West 19.6 mph 28.8 mph N/A   Overcast
3:55 AM 49.1 °F - 41.4 °F 75% 29.85 in 10.0 mi West 19.6 mph 25.3 mph N/A   Overcast
4:15 AM 48.9 °F - 41.5 °F 76% 29.86 in 10.0 mi West 18.4 mph 25.3 mph N/A   Overcast
4:35 AM 49.1 °F - 41.0 °F 74% 29.86 in 10.0 mi West 16.1 mph 28.8 mph N/A   Overcast
4:55 AM 49.1 °F - 41.0 °F 74% 29.86 in 10.0 mi West 19.6 mph 23.0 mph N/A   Overcast
5:15 AM 48.9 °F - 40.5 °F 73% 29.87 in 10.0 mi West 20.7 mph 26.5 mph N/A   Overcast
5:35 AM 48.2 °F - 39.2 °F 71% 29.88 in 10.0 mi WNW 19.6 mph 31.1 mph N/A   Overcast
5:55 AM 47.1 °F - 38.3 °F 71% 29.88 in 10.0 mi West 17.3 mph 26.5 mph N/A   Scattered Clouds
6:15 AM 46.6 °F - 38.5 °F 73% 29.89 in 10.0 mi West 16.1 mph 19.6 mph N/A   Clear
6:35 AM 46.4 °F 40.1 °F 37.9 °F 72% 29.90 in 10.0 mi West 15.0 mph 21.9 mph N/A   Clear
6:55 AM 46.0 °F 38.3 °F 37.6 °F 72% 29.91 in 10.0 mi WNW 20.7 mph 27.6 mph N/A   Scattered Clouds
7:15 AM 45.9 °F 39.1 °F 37.9 °F 74% 29.91 in 10.0 mi WNW 16.1 mph - N/A   Overcast
7:35 AM 46.0 °F 37.4 °F 37.8 °F 73% 29.91 in 10.0 mi West 25.3 mph 32.2 mph N/A   Overcast
7:55 AM 45.5 °F 38.3 °F 37.0 °F 72% 29.92 in 10.0 mi WNW 17.3 mph 20.7 mph N/A   Overcast
8:15 AM 45.5 °F 38.1 °F 37.0 °F 72% 29.92 in 10.0 mi West 18.4 mph 23.0 mph N/A   Overcast
8:35 AM 44.6 °F 37.4 °F 36.5 °F 73% 29.93 in 10.0 mi WNW 16.1 mph 21.9 mph N/A   Overcast
8:55 AM 45.1 °F 37.1 °F 36.3 °F 71% 29.93 in 10.0 mi West 20.7 mph 26.5 mph N/A   Overcast
9:15 AM 45.3 °F 37.3 °F 37.0 °F 73% 29.94 in 10.0 mi West 20.7 mph 29.9 mph N/A   Overcast
9:35 AM 45.7 °F 37.6 °F 36.9 °F 71% 29.94 in 10.0 mi West 21.9 mph 33.4 mph N/A   Overcast
9:55 AM 46.4 °F 38.5 °F 37.4 °F 71% 29.95 in 10.0 mi West 21.9 mph 32.2 mph N/A   Overcast
10:15 AM 46.8 °F - 37.6 °F 70% 29.95 in 10.0 mi West 21.9 mph 31.1 mph N/A   Overcast
10:35 AM 47.5 °F - 38.1 °F 70% 29.96 in 10.0 mi West 24.2 mph 31.1 mph N/A   Overcast
10:55 AM 47.7 °F - 37.9 °F 69% 29.96 in 10.0 mi West 25.3 mph 32.2 mph N/A   Overcast
11:15 AM 48.0 °F - 38.5 °F 70% 29.97 in 10.0 mi West 21.9 mph 33.4 mph N/A   Overcast
11:35 AM 48.9 °F - 39.0 °F 69% 29.97 in 10.0 mi WNW 25.3 mph 33.4 mph N/A   Mostly Cloudy
11:55 AM 50.2 °F - 39.2 °F 66% 29.97 in 10.0 mi West 21.9 mph 32.2 mph N/A   Overcast
12:15 PM 50.0 °F - 39.0 °F 66% 29.98 in 10.0 mi West 25.3 mph 32.2 mph N/A   Overcast
12:35 PM 49.3 °F - 38.8 °F 67% 29.99 in 10.0 mi West 25.3 mph 33.4 mph N/A   Overcast
12:55 PM 48.9 °F - 38.7 °F 68% 29.99 in 10.0 mi West 26.5 mph 32.2 mph N/A   Overcast
1:15 PM 49.1 °F - 38.8 °F 68% 29.99 in 10.0 mi West 24.2 mph 29.9 mph N/A   Overcast
1:35 PM 48.4 °F - 38.3 °F 68% 29.99 in 10.0 mi WNW 21.9 mph 33.4 mph N/A   Overcast
1:55 PM 48.7 °F - 39.2 °F 70% 29.99 in 10.0 mi WNW 27.6 mph 31.1 mph N/A   Overcast
2:15 PM 49.1 °F - 39.2 °F 69% 29.98 in 10.0 mi WNW 24.2 mph 32.2 mph N/A   Overcast
2:35 PM 48.9 °F - 38.8 °F 68% 29.98 in 10.0 mi WNW 24.2 mph 33.4 mph N/A   Overcast
2:55 PM 48.7 °F - 39.2 °F 70% 29.98 in 10.0 mi WNW 25.3 mph 34.5 mph N/A   Overcast
3:15 PM 48.7 °F - 39.0 °F 69% 29.99 in 10.0 mi WNW 20.7 mph 32.2 mph N/A   Overcast
3:35 PM 48.4 °F - 39.0 °F 70% 30.00 in 10.0 mi WNW 21.9 mph 32.2 mph N/A   Overcast
3:55 PM 48.4 °F - 39.0 °F 70% 30.00 in 10.0 mi WNW 19.6 mph 31.1 mph N/A   Overcast
4:15 PM 49.1 °F - 39.6 °F 70% 30.00 in 10.0 mi WNW 23.0 mph 29.9 mph N/A   Overcast
4:35 PM 48.4 °F - 39.4 °F 71% 30.01 in 10.0 mi WNW 17.3 mph 31.1 mph N/A   Overcast
4:55 PM 48.2 °F - 38.8 °F 70% 30.01 in 10.0 mi WNW 23.0 mph 31.1 mph N/A   Overcast
5:15 PM 48.2 °F - 39.2 °F 71% 30.01 in 10.0 mi WNW 23.0 mph 31.1 mph N/A   Overcast
5:35 PM 48.2 °F - 39.2 °F 71% 30.01 in 10.0 mi NW 21.9 mph 31.1 mph N/A   Overcast
5:55 PM 47.8 °F - 39.0 °F 71% 30.01 in 10.0 mi WNW 23.0 mph 33.4 mph N/A   Overcast
6:15 PM 47.7 °F - 39.0 °F 72% 30.01 in 10.0 mi WNW 17.3 mph 28.8 mph N/A   Overcast
6:35 PM 47.3 °F - 38.8 °F 72% 30.02 in 10.0 mi NW 20.7 mph 28.8 mph N/A   Overcast
6:55 PM 47.3 °F - 39.0 °F 73% 30.03 in 10.0 mi NW 16.1 mph 25.3 mph N/A   Overcast
7:15 PM 47.3 °F - 39.2 °F 73% 30.04 in 10.0 mi WNW 18.4 mph 24.2 mph N/A   Overcast
7:55 PM 46.8 °F - 39.2 °F 75% 30.05 in 10.0 mi WNW 16.1 mph - N/A   Overcast
8:15 PM 46.8 °F - 39.2 °F 75% 30.06 in 10.0 mi NW 17.3 mph 21.9 mph N/A   Overcast
8:35 PM 46.6 °F - 39.0 °F 75% 30.06 in 10.0 mi NW 18.4 mph 23.0 mph N/A   Overcast
8:55 PM 46.6 °F - 39.4 °F 76% 30.07 in 10.0 mi WNW 10.4 mph 23.0 mph N/A   Overcast
9:15 PM 46.2 °F 40.5 °F 39.7 °F 78% 30.07 in 10.0 mi WNW 12.7 mph - N/A   Overcast
9:35 PM 46.0 °F 39.9 °F 39.6 °F 78% 30.07 in 10.0 mi NW 13.8 mph 19.6 mph N/A   Overcast
9:55 PM 46.0 °F 39.9 °F 39.2 °F 77% 30.07 in 10.0 mi NW 13.8 mph - N/A   Overcast
10:15 PM 45.9 °F 39.7 °F 40.3 °F 81% 30.08 in 10.0 mi WNW 13.8 mph - N/A   Overcast
10:35 PM 45.1 °F 39.1 °F 40.5 °F 84% 30.08 in 10.0 mi WNW 12.7 mph - N/A   Overcast
10:55 PM 45.0 °F 38.9 °F 40.8 °F 85% 30.08 in 10.0 mi NW 12.7 mph 17.3 mph N/A   Overcast
11:15 PM 45.1 °F 39.9 °F 40.8 °F 85% 30.08 in 10.0 mi WNW 10.4 mph 19.6 mph N/A   Overcast
11:35 PM 45.1 °F 38.1 °F 40.3 °F 83% 30.07 in 10.0 mi WNW 16.1 mph 20.7 mph N/A   Overcast
11:55 PM 45.5 °F 39.2 °F 40.1 °F 81% 30.07 in 10.0 mi NW 13.8 mph 20.7 mph N/A   Overcast